createdAt,value
2017-07-29T00:00:41.409Z,72.40
2017-07-29T00:03:09.810Z,72.50
2017-07-29T00:05:37.363Z,72.40
2017-07-29T00:08:05.077Z,73.40
2017-07-29T00:10:32.621Z,73.00
2017-07-29T00:13:00.165Z,73.00
2017-07-29T00:15:27.755Z,73.10
2017-07-29T00:17:55.384Z,73.10
2017-07-29T00:20:23.060Z,73.10
2017-07-29T00:22:50.699Z,73.00
2017-07-29T00:25:18.289Z,73.20
2017-07-29T00:27:45.845Z,73.50
2017-07-29T00:30:13.396Z,73.40
2017-07-29T00:32:41.027Z,73.80
2017-07-29T00:35:08.574Z,75.30
2017-07-29T00:37:36.169Z,74.50
2017-07-29T00:40:03.908Z,74.70
2017-07-29T00:42:31.446Z,74.30
2017-07-29T00:44:59.021Z,74.10
2017-07-29T00:47:26.565Z,74.40
2017-07-29T00:49:54.149Z,75.20
2017-07-29T00:52:21.800Z,75.60
2017-07-29T00:54:49.356Z,75.60
2017-07-29T00:57:16.933Z,75.70
2017-07-29T00:59:44.577Z,75.90
2017-07-29T01:02:12.137Z,76.30
2017-07-29T01:04:39.713Z,76.60
2017-07-29T01:07:07.292Z,76.40
2017-07-29T01:09:34.911Z,76.40
2017-07-29T01:12:02.470Z,76.50
2017-07-29T01:14:30.059Z,76.70
2017-07-29T01:16:57.602Z,75.50
2017-07-29T01:19:25.152Z,74.90
2017-07-29T01:21:52.737Z,75.20
2017-07-29T01:24:20.453Z,75.80
2017-07-29T01:26:48.028Z,76.00
2017-07-29T01:29:15.582Z,75.70
2017-07-29T01:31:43.128Z,75.50
2017-07-29T01:34:10.718Z,75.60
2017-07-29T01:36:38.364Z,75.80
2017-07-29T01:39:05.914Z,75.70
2017-07-29T01:41:33.480Z,76.00
2017-07-29T01:44:01.073Z,76.40
2017-07-29T01:46:28.607Z,76.90
2017-07-29T01:48:56.148Z,77.30
2017-07-29T01:51:23.784Z,77.40
2017-07-29T01:53:51.329Z,77.80
2017-07-29T01:56:19.683Z,77.80
2017-07-29T01:58:47.229Z,77.80
2017-07-29T02:01:14.849Z,77.60
2017-07-29T02:03:42.436Z,78.10
2017-07-29T02:06:10.054Z,77.90
2017-07-29T02:08:37.604Z,77.90
2017-07-29T02:11:05.181Z,77.70
2017-07-29T02:13:32.932Z,78.20
2017-07-29T02:16:00.509Z,78.10
2017-07-29T02:18:28.050Z,78.90
2017-07-29T02:20:55.629Z,79.00
2017-07-29T02:23:23.227Z,78.00
2017-07-29T02:25:50.765Z,78.90
2017-07-29T02:28:18.306Z,79.50
2017-07-29T02:30:45.873Z,79.80
2017-07-29T02:33:13.430Z,79.80
2017-07-29T02:35:40.992Z,80.30
2017-07-29T02:38:08.533Z,80.80
2017-07-29T02:40:36.109Z,81.30
2017-07-29T02:43:03.709Z,81.00
2017-07-29T02:45:32.022Z,81.10
2017-07-29T02:47:59.585Z,81.10
2017-07-29T02:50:27.138Z,82.00
2017-07-29T02:52:54.874Z,80.80
2017-07-29T02:55:23.190Z,79.50
2017-07-29T02:57:50.758Z,79.50
2017-07-29T03:00:18.485Z,79.60
2017-07-29T03:02:46.018Z,79.50
2017-07-29T03:05:14.352Z,79.60
2017-07-29T03:07:42.080Z,79.50
2017-07-29T03:10:09.745Z,79.40
2017-07-29T03:12:37.433Z,79.80
2017-07-29T03:15:04.974Z,79.80
2017-07-29T03:17:32.512Z,80.70
2017-07-29T03:20:00.087Z,80.80
2017-07-29T03:22:27.650Z,80.80
2017-07-29T03:24:55.557Z,81.70
2017-07-29T03:27:23.100Z,81.70
2017-07-29T03:29:50.651Z,82.00
2017-07-29T03:32:18.217Z,82.30
2017-07-29T03:34:45.841Z,82.10
2017-07-29T03:37:13.418Z,82.20
2017-07-29T03:39:40.978Z,82.40
2017-07-29T03:42:08.561Z,82.50
2017-07-29T03:44:36.110Z,83.00
2017-07-29T03:47:03.652Z,82.60
2017-07-29T03:49:31.246Z,82.70
2017-07-29T03:51:58.849Z,82.60
2017-07-29T03:54:26.434Z,83.20
2017-07-29T03:56:53.979Z,82.80
2017-07-29T03:59:21.534Z,82.80
2017-07-29T04:01:49.133Z,83.00
2017-07-29T04:04:16.684Z,82.80
2017-07-29T04:06:44.221Z,82.10
2017-07-29T04:09:11.861Z,82.60
2017-07-29T04:11:39.401Z,81.70
2017-07-29T04:14:07.019Z,81.90
2017-07-29T04:16:34.559Z,81.80
2017-07-29T04:19:02.121Z,82.10
2017-07-29T04:21:29.727Z,81.70
2017-07-29T04:23:58.041Z,81.90
2017-07-29T04:26:25.728Z,81.90
2017-07-29T04:28:53.272Z,81.20
2017-07-29T04:31:20.813Z,80.70
2017-07-29T04:33:48.386Z,81.60
2017-07-29T04:36:15.937Z,80.60
2017-07-29T04:38:43.526Z,80.00
2017-07-29T04:41:11.083Z,79.70
2017-07-29T04:43:38.627Z,79.40
2017-07-29T04:46:06.212Z,79.20
2017-07-29T04:48:34.520Z,79.20
2017-07-29T04:51:02.057Z,79.00
2017-07-29T04:53:30.394Z,78.20
2017-07-29T04:55:57.942Z,78.10
2017-07-29T04:58:25.521Z,77.90
2017-07-29T05:00:53.091Z,77.50
2017-07-29T05:03:20.632Z,77.80
2017-07-29T05:05:48.213Z,77.20
2017-07-29T05:08:16.610Z,76.80
2017-07-29T05:10:44.193Z,76.60
2017-07-29T05:13:11.728Z,76.50
2017-07-29T05:15:39.308Z,76.30
2017-07-29T05:18:06.969Z,76.00
2017-07-29T05:20:34.495Z,76.20
2017-07-29T05:23:02.845Z,75.20
2017-07-29T05:25:30.398Z,75.10
2017-07-29T05:27:57.961Z,74.90
2017-07-29T05:30:25.541Z,74.30
2017-07-29T05:32:53.874Z,73.80
2017-07-29T05:35:21.441Z,73.80
2017-07-29T05:37:48.989Z,72.80
2017-07-29T05:40:16.560Z,72.90
2017-07-29T05:42:44.117Z,72.50
2017-07-29T05:45:11.671Z,72.50
2017-07-29T05:47:39.331Z,72.40
2017-07-29T05:50:06.886Z,71.90
2017-07-29T05:52:34.505Z,71.60
2017-07-29T05:55:02.030Z,71.60
2017-07-29T05:57:30.341Z,71.50
2017-07-29T05:59:58.690Z,71.50
2017-07-29T06:02:26.992Z,71.90
2017-07-29T06:04:54.565Z,71.40
2017-07-29T06:07:22.160Z,71.50
2017-07-29T06:09:49.713Z,70.70
2017-07-29T06:12:17.245Z,70.10
2017-07-29T06:14:44.836Z,70.80
2017-07-29T06:17:12.375Z,70.20
2017-07-29T06:19:39.957Z,70.00
2017-07-29T06:22:07.581Z,69.90
2017-07-29T06:24:35.220Z,70.50
2017-07-29T06:27:02.931Z,69.60
2017-07-29T06:29:30.479Z,68.50
2017-07-29T06:31:58.055Z,67.20
2017-07-29T06:34:25.595Z,67.30
2017-07-29T06:36:53.134Z,66.50
2017-07-29T06:39:20.706Z,66.90
2017-07-29T06:41:48.305Z,65.90
2017-07-29T06:44:16.652Z,66.80
2017-07-29T06:46:44.200Z,66.10
2017-07-29T06:49:11.749Z,64.00
2017-07-29T06:51:39.334Z,64.20
2017-07-29T06:54:06.872Z,63.80
2017-07-29T06:56:34.438Z,63.40
2017-07-29T06:59:01.983Z,64.20
2017-07-29T07:01:29.563Z,62.50
2017-07-29T07:03:57.140Z,62.60
2017-07-29T07:06:25.446Z,61.60
2017-07-29T07:08:53.028Z,61.60
2017-07-29T07:11:20.572Z,60.80
2017-07-29T07:13:48.100Z,60.90
2017-07-29T07:16:16.443Z,52.60
2017-07-29T07:18:43.990Z,52.50
2017-07-29T07:21:11.573Z,52.10
2017-07-29T07:23:39.110Z,48.10
2017-07-29T07:26:06.736Z,48.80
2017-07-29T07:28:34.322Z,46.60
2017-07-29T07:31:01.871Z,43.70
2017-07-29T07:33:29.523Z,40.90
2017-07-29T07:35:57.144Z,46.60
2017-07-29T07:38:25.466Z,50.40
2017-07-29T07:40:53.041Z,50.30
2017-07-29T07:43:20.666Z,52.90
2017-07-29T07:45:48.206Z,53.90
2017-07-29T07:48:15.776Z,55.40
2017-07-29T07:50:43.323Z,55.50
2017-07-29T07:53:10.861Z,56.60
2017-07-29T07:55:39.223Z,53.90
2017-07-29T07:58:06.763Z,53.80
2017-07-29T08:00:34.435Z,53.50
2017-07-29T08:03:02.008Z,52.90
2017-07-29T08:05:30.321Z,53.20
2017-07-29T08:07:57.906Z,53.70
2017-07-29T08:10:25.440Z,51.50
2017-07-29T08:12:53.035Z,49.90
2017-07-29T08:15:20.793Z,48.20
2017-07-29T08:17:48.341Z,48.10
2017-07-29T08:20:15.914Z,47.90
2017-07-29T08:22:43.494Z,46.10
2017-07-29T08:25:11.084Z,46.60
2017-07-29T08:27:38.639Z,46.10
2017-07-29T08:30:06.930Z,46.90
2017-07-29T08:32:34.533Z,46.90
2017-07-29T08:35:02.080Z,47.70
2017-07-29T08:37:29.846Z,48.70
2017-07-29T08:39:57.454Z,48.70
2017-07-29T08:42:25.139Z,45.30
2017-07-29T08:44:52.676Z,48.10
2017-07-29T08:47:20.263Z,47.90
2017-07-29T08:49:47.809Z,47.90
2017-07-29T08:52:15.414Z,49.10
2017-07-29T08:54:42.986Z,49.30
2017-07-29T08:57:11.341Z,48.30
2017-07-29T08:59:38.889Z,48.30
2017-07-29T09:02:06.435Z,48.80
2017-07-29T09:04:34.012Z,50.50
2017-07-29T09:07:01.556Z,49.60
2017-07-29T09:09:29.150Z,49.60
2017-07-29T09:11:57.008Z,50.00
2017-07-29T09:14:24.570Z,49.40
2017-07-29T09:16:52.160Z,48.70
2017-07-29T09:19:19.737Z,51.10
2017-07-29T09:21:47.277Z,48.30
2017-07-29T09:24:14.876Z,50.00
2017-07-29T09:26:42.462Z,48.70
2017-07-29T09:29:10.796Z,49.30
2017-07-29T09:31:38.363Z,48.50
2017-07-29T09:34:05.934Z,46.50
2017-07-29T09:36:33.478Z,46.20
2017-07-29T09:39:01.025Z,46.50
2017-07-29T09:41:28.613Z,46.30
2017-07-29T09:43:57.024Z,48.30
2017-07-29T09:46:24.588Z,47.90
2017-07-29T09:48:52.173Z,46.60
2017-07-29T09:51:19.734Z,47.30
2017-07-29T09:53:47.326Z,48.00
2017-07-29T09:56:14.861Z,52.70
2017-07-29T09:58:42.442Z,49.40
2017-07-29T10:01:10.010Z,48.70
2017-07-29T10:03:37.601Z,46.70
2017-07-29T10:06:05.155Z,48.00
2017-07-29T10:08:32.706Z,48.30
2017-07-29T10:11:01.059Z,49.00
2017-07-29T10:13:28.649Z,49.00
2017-07-29T10:15:56.415Z,48.20
2017-07-29T10:18:24.102Z,46.30
2017-07-29T10:20:51.750Z,46.60
2017-07-29T10:23:19.328Z,47.80
2017-07-29T10:25:46.972Z,46.40
2017-07-29T10:28:14.506Z,47.60
2017-07-29T10:30:42.190Z,46.60
2017-07-29T10:33:09.728Z,47.00
2017-07-29T10:35:37.313Z,49.10
2017-07-29T10:38:05.018Z,47.20
2017-07-29T10:40:32.588Z,44.20
2017-07-29T10:43:01.011Z,47.00
2017-07-29T10:45:28.672Z,47.00
2017-07-29T10:47:56.309Z,44.90
2017-07-29T10:50:23.852Z,47.30
2017-07-29T10:52:52.296Z,48.70
2017-07-29T10:55:19.849Z,48.60
2017-07-29T10:57:47.582Z,44.80
2017-07-29T11:00:15.158Z,46.30
2017-07-29T11:02:42.715Z,47.60
2017-07-29T11:05:10.297Z,47.10
2017-07-29T11:07:37.890Z,46.90
2017-07-29T11:10:05.427Z,46.20
2017-07-29T11:12:32.999Z,46.50
2017-07-29T11:15:01.353Z,48.10
2017-07-29T11:17:28.934Z,48.10
2017-07-29T11:19:57.471Z,46.90
2017-07-29T11:22:25.033Z,46.80
2017-07-29T11:24:52.589Z,46.30
2017-07-29T11:27:20.157Z,47.80
2017-07-29T11:29:47.707Z,48.00
2017-07-29T11:32:15.308Z,47.50
2017-07-29T11:34:43.697Z,49.10
2017-07-29T11:37:11.318Z,49.10
2017-07-29T11:39:38.967Z,49.00
2017-07-29T11:42:06.556Z,50.00
2017-07-29T11:44:34.869Z,50.20
2017-07-29T11:47:02.449Z,50.20
2017-07-29T11:49:30.024Z,50.90
2017-07-29T11:51:57.569Z,50.60
2017-07-29T11:54:25.169Z,51.30
2017-07-29T11:56:53.485Z,51.20
2017-07-29T11:59:21.238Z,51.30
2017-07-29T12:01:48.740Z,50.00
2017-07-29T12:04:16.296Z,49.80
2017-07-29T12:06:43.875Z,49.10
2017-07-29T12:09:12.183Z,49.70
2017-07-29T12:11:39.796Z,49.70
2017-07-29T12:14:07.417Z,48.90
2017-07-29T12:16:34.958Z,48.50
2017-07-29T12:19:02.610Z,50.10
2017-07-29T12:21:30.234Z,48.60
2017-07-29T12:23:57.784Z,48.70
2017-07-29T12:26:25.596Z,48.60
2017-07-29T12:28:53.135Z,49.50
2017-07-29T12:31:21.456Z,49.40
2017-07-29T12:33:49.037Z,49.40
2017-07-29T12:36:16.570Z,48.70
2017-07-29T12:38:44.173Z,48.20
2017-07-29T12:41:12.495Z,49.10
2017-07-29T12:43:40.055Z,49.10
2017-07-29T12:46:07.647Z,50.00
2017-07-29T12:48:35.197Z,48.80
2017-07-29T12:51:02.790Z,48.70
2017-07-29T12:53:31.114Z,47.50
2017-07-29T12:55:58.669Z,47.50
2017-07-29T12:58:26.257Z,48.90
2017-07-29T13:00:53.806Z,46.30
2017-07-29T13:03:21.429Z,49.90
2017-07-29T13:05:48.989Z,47.50
2017-07-29T13:08:16.569Z,47.00
2017-07-29T13:10:44.117Z,46.20
2017-07-29T13:13:11.676Z,47.20
2017-07-29T13:15:39.263Z,47.60
2017-07-29T13:18:06.817Z,46.70
2017-07-29T13:20:34.437Z,48.50
2017-07-29T13:23:01.978Z,47.80
2017-07-29T13:25:29.669Z,48.00
2017-07-29T13:27:57.325Z,45.70
2017-07-29T13:30:24.853Z,46.10
2017-07-29T13:32:52.547Z,48.50
2017-07-29T13:35:20.292Z,46.00
2017-07-29T13:37:47.890Z,47.00
2017-07-29T13:40:15.435Z,46.20
2017-07-29T13:42:43.036Z,47.40
2017-07-29T13:45:11.373Z,45.80
2017-07-29T13:47:38.938Z,45.70
2017-07-29T13:50:06.549Z,44.90
2017-07-29T13:52:34.293Z,45.90
2017-07-29T13:55:02.717Z,45.80
2017-07-29T13:57:30.319Z,45.80
2017-07-29T13:59:58.486Z,45.40
2017-07-29T14:02:26.090Z,45.80
2017-07-29T14:04:53.668Z,47.80
2017-07-29T14:07:21.223Z,49.70
2017-07-29T14:09:48.823Z,50.50
2017-07-29T14:12:16.477Z,46.60
2017-07-29T14:14:44.041Z,45.10
2017-07-29T14:17:11.617Z,45.90
2017-07-29T14:19:39.963Z,45.30
2017-07-29T14:22:07.533Z,44.50
2017-07-29T14:24:35.117Z,46.00
2017-07-29T14:27:02.676Z,48.20
2017-07-29T14:29:30.992Z,46.60
2017-07-29T14:31:58.584Z,46.50
2017-07-29T14:34:26.129Z,45.20
2017-07-29T14:36:53.645Z,46.00
2017-07-29T14:39:21.236Z,45.50
2017-07-29T14:41:48.972Z,45.90
2017-07-29T14:44:16.546Z,44.90
2017-07-29T14:46:44.137Z,45.30
2017-07-29T14:49:11.694Z,46.00
2017-07-29T14:51:39.273Z,45.90
2017-07-29T14:54:07.785Z,43.00
2017-07-29T14:56:35.337Z,43.00
2017-07-29T14:59:02.954Z,43.90
2017-07-29T15:01:30.504Z,43.90
2017-07-29T15:03:58.176Z,43.90
2017-07-29T15:06:25.753Z,44.20
2017-07-29T15:08:54.199Z,45.30
2017-07-29T15:11:21.761Z,45.30
2017-07-29T15:13:49.381Z,46.70
2017-07-29T15:16:16.968Z,46.60
2017-07-29T15:18:44.608Z,45.70
2017-07-29T15:21:12.213Z,47.00
2017-07-29T15:23:39.748Z,47.10
2017-07-29T15:26:07.425Z,46.10
2017-07-29T15:28:35.124Z,45.70
2017-07-29T15:31:02.667Z,45.50
2017-07-29T15:33:31.177Z,45.20
2017-07-29T15:35:58.764Z,45.90
2017-07-29T15:38:26.305Z,44.90
2017-07-29T15:40:54.135Z,46.70
2017-07-29T15:43:21.677Z,45.30
2017-07-29T15:45:50.189Z,45.30
2017-07-29T15:48:17.798Z,45.30
2017-07-29T15:50:45.389Z,45.00
2017-07-29T15:53:12.932Z,45.30
2017-07-29T15:55:41.507Z,43.70
2017-07-29T15:58:09.097Z,43.70
2017-07-29T16:00:36.666Z,40.60
2017-07-29T16:03:04.217Z,39.90
2017-07-29T16:05:31.859Z,37.50
2017-07-29T16:07:59.405Z,38.70
2017-07-29T16:10:27.003Z,36.50
2017-07-29T16:12:54.560Z,34.10
2017-07-29T16:15:22.263Z,33.70
2017-07-29T16:17:49.830Z,35.90
2017-07-29T16:20:17.362Z,38.30
2017-07-29T16:22:44.987Z,41.40
2017-07-29T16:25:12.540Z,40.80
2017-07-29T16:27:40.209Z,40.90
2017-07-29T16:30:07.806Z,40.90
2017-07-29T16:32:35.355Z,40.70
2017-07-29T16:35:02.937Z,41.80
2017-07-29T16:37:30.522Z,42.90
2017-07-29T16:39:59.017Z,43.80
2017-07-29T16:42:26.565Z,43.80
2017-07-29T16:44:55.066Z,42.90
2017-07-29T16:47:22.637Z,42.80
2017-07-29T16:49:50.220Z,42.30
2017-07-29T16:52:17.917Z,43.60
2017-07-29T16:54:46.222Z,44.40
2017-07-29T16:57:13.799Z,44.40
2017-07-29T16:59:41.369Z,44.60
2017-07-29T17:02:08.926Z,44.40
2017-07-29T17:04:36.499Z,43.70
2017-07-29T17:07:04.043Z,44.00
2017-07-29T17:09:31.674Z,44.60
2017-07-29T17:11:59.287Z,44.60
2017-07-29T17:14:27.629Z,45.20
2017-07-29T17:16:55.205Z,45.20
2017-07-29T17:19:22.786Z,45.40
2017-07-29T17:21:51.130Z,45.40
2017-07-29T17:24:18.688Z,45.30
2017-07-29T17:26:46.238Z,44.80
2017-07-29T17:29:13.819Z,45.30
2017-07-29T17:31:41.372Z,45.60
2017-07-29T17:34:09.019Z,45.30
2017-07-29T17:36:36.590Z,45.20
2017-07-29T17:39:04.116Z,45.40
2017-07-29T17:41:31.696Z,45.30
2017-07-29T17:43:59.380Z,45.00
2017-07-29T17:46:26.972Z,46.00
2017-07-29T17:48:54.530Z,45.90
2017-07-29T17:51:22.035Z,46.80
2017-07-29T17:53:49.620Z,47.30
2017-07-29T17:56:17.938Z,46.80
2017-07-29T17:58:45.551Z,46.80
2017-07-29T18:01:14.016Z,47.80
2017-07-29T18:03:41.605Z,47.00
2017-07-29T18:06:09.916Z,47.50
2017-07-29T18:08:37.503Z,47.40
2017-07-29T18:11:05.049Z,47.00
2017-07-29T18:13:32.594Z,47.50
2017-07-29T18:16:00.176Z,47.40
2017-07-29T18:18:27.731Z,47.20
2017-07-29T18:20:55.306Z,47.50
2017-07-29T18:23:22.876Z,48.00
2017-07-29T18:25:51.295Z,48.80
2017-07-29T18:28:18.884Z,48.80
2017-07-29T18:30:46.521Z,49.70
2017-07-29T18:33:14.107Z,50.20
2017-07-29T18:35:41.763Z,50.60
2017-07-29T18:38:09.326Z,51.10
2017-07-29T18:40:36.912Z,51.20
2017-07-29T18:43:04.481Z,51.50
2017-07-29T18:45:32.029Z,49.60
2017-07-29T18:48:00.541Z,52.20
2017-07-29T18:50:28.206Z,52.00
2017-07-29T18:52:55.772Z,52.10
2017-07-29T18:55:23.380Z,52.50
2017-07-29T18:57:51.757Z,53.40
2017-07-29T19:00:19.377Z,53.30
2017-07-29T19:02:46.985Z,53.50
2017-07-29T19:05:15.334Z,54.00
2017-07-29T19:07:42.933Z,53.90
2017-07-29T19:10:11.376Z,54.20
2017-07-29T19:12:38.929Z,54.80
2017-07-29T19:15:06.549Z,54.50
2017-07-29T19:17:34.081Z,54.70
2017-07-29T19:20:01.685Z,55.00
2017-07-29T19:22:29.349Z,55.10
2017-07-29T19:24:56.994Z,55.40
2017-07-29T19:27:24.578Z,55.60
2017-07-29T19:29:52.145Z,55.60
2017-07-29T19:32:19.682Z,55.80
2017-07-29T19:34:47.251Z,56.00
2017-07-29T19:37:14.821Z,56.30
2017-07-29T19:39:42.389Z,56.40
2017-07-29T19:42:10.695Z,57.20
2017-07-29T19:44:38.263Z,56.90
2017-07-29T19:47:05.827Z,57.20
2017-07-29T19:49:33.380Z,57.20
2017-07-29T19:52:01.077Z,57.10
2017-07-29T19:54:28.621Z,57.10
2017-07-29T19:56:56.154Z,57.00
2017-07-29T19:59:23.794Z,57.00
2017-07-29T20:01:52.304Z,57.50
2017-07-29T20:04:19.965Z,57.50
2017-07-29T20:06:47.494Z,57.50
2017-07-29T20:09:15.121Z,57.60
2017-07-29T20:11:42.668Z,57.90
2017-07-29T20:14:10.218Z,58.30
2017-07-29T20:16:37.786Z,58.70
2017-07-29T20:19:05.330Z,58.80
2017-07-29T20:21:33.110Z,59.10
2017-07-29T20:24:00.685Z,59.40
2017-07-29T20:26:28.994Z,60.90
2017-07-29T20:28:56.660Z,60.10
2017-07-29T20:31:24.255Z,60.60
2017-07-29T20:33:51.779Z,61.20
2017-07-29T20:36:19.488Z,61.50
2017-07-29T20:38:47.057Z,61.80
2017-07-29T20:41:14.631Z,62.30
2017-07-29T20:43:43.115Z,62.70
2017-07-29T20:46:11.514Z,62.90
2017-07-29T20:48:39.146Z,62.90
2017-07-29T20:51:07.466Z,64.00
2017-07-29T20:53:35.057Z,63.30
2017-07-29T20:56:03.399Z,63.90
2017-07-29T20:58:30.947Z,63.90
2017-07-29T21:00:58.517Z,64.10
2017-07-29T21:03:26.416Z,64.30
2017-07-29T21:05:53.986Z,64.30
2017-07-29T21:08:22.306Z,64.50
2017-07-29T21:10:49.863Z,64.40
2017-07-29T21:13:17.432Z,65.00
2017-07-29T21:15:44.977Z,64.70
2017-07-29T21:18:12.518Z,65.10
2017-07-29T21:20:40.107Z,65.30
2017-07-29T21:23:07.692Z,65.30
2017-07-29T21:25:35.264Z,65.40
2017-07-29T21:28:02.861Z,65.30
2017-07-29T21:30:30.433Z,65.60
2017-07-29T21:32:57.984Z,66.20
2017-07-29T21:35:25.557Z,66.10
2017-07-29T21:37:53.110Z,66.50
2017-07-29T21:40:20.690Z,66.90
2017-07-29T21:42:48.241Z,66.50
2017-07-29T21:45:15.848Z,66.60
2017-07-29T21:47:44.340Z,67.40
2017-07-29T21:50:11.880Z,67.40
2017-07-29T21:52:40.302Z,67.60
2017-07-29T21:55:07.835Z,67.20
2017-07-29T21:57:35.381Z,67.80
2017-07-29T22:00:03.829Z,67.60
2017-07-29T22:02:31.383Z,67.60
2017-07-29T22:04:59.048Z,68.80
2017-07-29T22:07:26.634Z,68.30
2017-07-29T22:09:54.938Z,69.10
2017-07-29T22:12:22.515Z,69.10
2017-07-29T22:14:50.097Z,69.70
2017-07-29T22:17:17.654Z,70.20
2017-07-29T22:19:45.233Z,70.60
2017-07-29T22:22:13.541Z,70.20
2017-07-29T22:24:41.214Z,70.00
2017-07-29T22:27:08.757Z,70.20
2017-07-29T22:29:36.460Z,70.20
2017-07-29T22:32:04.091Z,70.50
2017-07-29T22:34:31.629Z,70.50
2017-07-29T22:36:59.301Z,70.00
2017-07-29T22:39:26.849Z,70.50
2017-07-29T22:41:54.392Z,71.10
2017-07-29T22:44:22.941Z,71.40
2017-07-29T22:46:50.493Z,71.40
2017-07-29T22:49:18.077Z,72.00
2017-07-29T22:51:46.391Z,72.10
2017-07-29T22:54:13.954Z,72.10
2017-07-29T22:56:41.528Z,72.50
2017-07-29T22:59:09.096Z,72.00
2017-07-29T23:01:36.748Z,72.60
2017-07-29T23:04:04.293Z,72.60
2017-07-29T23:06:31.925Z,72.90
2017-07-29T23:08:59.496Z,73.20
2017-07-29T23:11:27.051Z,73.20
2017-07-29T23:13:54.629Z,73.80
2017-07-29T23:16:22.173Z,74.10
2017-07-29T23:18:49.727Z,74.20
2017-07-29T23:21:17.300Z,74.20
2017-07-29T23:23:44.847Z,73.80
2017-07-29T23:26:12.456Z,73.20
2017-07-29T23:28:39.996Z,73.20
2017-07-29T23:31:07.647Z,72.60
2017-07-29T23:33:35.429Z,74.00
2017-07-29T23:36:03.040Z,73.60
2017-07-29T23:38:30.585Z,74.70
2017-07-29T23:40:58.922Z,74.40
2017-07-29T23:43:26.552Z,74.40
2017-07-29T23:45:54.149Z,74.70
2017-07-29T23:48:21.857Z,75.00
2017-07-29T23:50:49.402Z,75.10
2017-07-29T23:53:16.968Z,75.40
2017-07-29T23:55:44.514Z,75.30
2017-07-29T23:58:12.845Z,75.50
